createdAt,value
2023-05-13T00:01:08.832Z,96775.31
2023-05-13T00:03:35.489Z,96776.84
2023-05-13T00:06:02.069Z,96774.78
2023-05-13T00:08:28.581Z,96776.53
2023-05-13T00:10:55.013Z,96779.22
2023-05-13T00:13:21.625Z,96782.25
2023-05-13T00:15:48.050Z,96790.75
2023-05-13T00:18:14.542Z,96781.94
2023-05-13T00:20:44.112Z,96782.25
2023-05-13T00:23:10.550Z,96784.66
2023-05-13T00:25:36.965Z,96781.94
2023-05-13T00:28:03.376Z,96788.03
2023-05-13T00:30:29.853Z,96781.41
2023-05-13T00:32:56.429Z,96784.66
2023-05-13T00:35:22.903Z,96785.84
2023-05-13T00:37:49.336Z,96781.19
2023-05-13T00:40:15.858Z,96779.22
2023-05-13T00:42:42.325Z,96784.66
2023-05-13T00:45:11.699Z,96783.13
2023-05-13T00:47:38.193Z,96777.69
2023-05-13T00:50:04.835Z,96790.63
2023-05-13T00:52:31.288Z,96789.44
2023-05-13T00:54:57.830Z,96792.91
2023-05-13T00:57:24.345Z,96794.97
2023-05-13T00:59:50.854Z,96794.78
2023-05-13T01:02:17.323Z,96789.34
2023-05-13T01:04:43.825Z,96801.75
2023-05-13T01:07:10.287Z,96802.16
2023-05-13T01:09:36.723Z,96801.81
2023-05-13T01:12:03.210Z,96801.50
2023-05-13T01:14:29.647Z,96802.69
2023-05-13T01:16:56.151Z,96814.75
2023-05-13T01:19:22.728Z,96811.19
2023-05-13T01:21:49.450Z,96813.56
2023-05-13T01:24:15.916Z,96820.19
2023-05-13T01:26:42.376Z,96820.59
2023-05-13T01:29:08.910Z,96822.91
2023-05-13T01:31:35.451Z,96816.69
2023-05-13T01:34:01.988Z,96821.38
2023-05-13T01:36:28.461Z,96821.72
2023-05-13T01:38:54.870Z,96825.19
2023-05-13T01:41:21.305Z,96818.34
2023-05-13T01:43:47.800Z,96821.38
2023-05-13T01:46:14.326Z,96824.44
2023-05-13T01:48:40.826Z,96820.19
2023-05-13T01:51:07.326Z,96819.88
2023-05-13T01:53:33.807Z,96825.31
2023-05-13T01:56:00.322Z,96824.84
2023-05-13T01:58:26.734Z,96824.44
2023-05-13T02:00:53.148Z,96823.66
2023-05-13T02:03:19.727Z,96836.91
2023-05-13T02:05:46.352Z,96833.47
2023-05-13T02:08:12.862Z,96834.63
2023-05-13T02:10:39.342Z,96844.75
2023-05-13T02:13:05.806Z,96838.44
2023-05-13T02:15:32.301Z,96840.06
2023-05-13T02:17:58.833Z,96832.25
2023-05-13T02:20:25.314Z,96838.03
2023-05-13T02:22:51.796Z,96839.97
2023-05-13T02:25:18.331Z,96837.16
2023-05-13T02:27:44.838Z,96843.25
2023-05-13T02:30:11.272Z,96841.28
2023-05-13T02:32:37.778Z,96844.78
2023-05-13T02:35:07.181Z,96839.34
2023-05-13T02:37:33.621Z,96837.59
2023-05-13T02:40:00.147Z,96838.19
2023-05-13T02:42:26.591Z,96839.72
2023-05-13T02:44:53.083Z,96838.03
2023-05-13T02:47:19.554Z,96847.69
2023-05-13T02:49:45.993Z,96851.47
2023-05-13T02:52:12.432Z,96847.88
2023-05-13T02:54:38.976Z,96848.22
2023-05-13T02:57:05.496Z,96844.31
2023-05-13T02:59:32.004Z,96849.25
2023-05-13T03:01:58.483Z,96848.09
2023-05-13T03:04:24.921Z,96851.38
2023-05-13T03:06:51.413Z,96849.03
2023-05-13T03:09:17.892Z,96858.09
2023-05-13T03:11:44.392Z,96860.91
2023-05-13T03:14:10.894Z,96862.44
2023-05-13T03:16:37.445Z,96861.06
2023-05-13T03:19:04.086Z,96868.63
2023-05-13T03:21:30.552Z,96863.53
2023-05-13T03:23:57.038Z,96865.84
2023-05-13T03:26:23.583Z,96863.63
2023-05-13T03:28:50.057Z,96867.56
2023-05-13T03:31:16.574Z,96863.19
2023-05-13T03:33:43.090Z,96865.47
2023-05-13T03:36:09.588Z,96876.59
2023-05-13T03:38:36.077Z,96878.03
2023-05-13T03:41:02.503Z,96877.03
2023-05-13T03:43:28.955Z,96880.88
2023-05-13T03:45:55.436Z,96880.69
2023-05-13T03:48:21.847Z,96883.75
2023-05-13T03:50:48.354Z,96892.41
2023-05-13T03:53:14.755Z,96880.19
2023-05-13T03:55:41.191Z,96881.66
2023-05-13T03:58:07.658Z,96887.75
2023-05-13T04:00:34.134Z,96889.50
2023-05-13T04:03:00.589Z,96893.50
2023-05-13T04:05:27.030Z,96885.69
2023-05-13T04:07:53.430Z,96892.53
2023-05-13T04:10:20.444Z,96890.03
2023-05-13T04:12:47.171Z,96888.41
2023-05-13T04:15:13.563Z,96885.78
2023-05-13T04:17:42.838Z,96889.78
2023-05-13T04:20:09.242Z,96891.22
2023-05-13T04:22:35.705Z,96891.03
2023-05-13T04:25:02.184Z,96890.53
2023-05-13T04:27:28.654Z,96890.34
2023-05-13T04:29:55.164Z,96892.88
2023-05-13T04:32:21.795Z,96903.00
2023-05-13T04:34:48.393Z,96903.09
2023-05-13T04:37:14.882Z,96904.78
2023-05-13T04:39:41.362Z,96912.63
2023-05-13T04:42:07.863Z,96901.41
2023-05-13T04:44:34.356Z,96902.59
2023-05-13T04:47:00.874Z,96906.50
2023-05-13T04:49:27.290Z,96907.69
2023-05-13T04:51:54.187Z,96903.50
2023-05-13T04:54:21.160Z,96918.13
2023-05-13T04:56:47.557Z,96918.97
2023-05-13T04:59:14.040Z,96930.25
2023-05-13T05:01:40.611Z,96927.22
2023-05-13T05:04:07.117Z,96922.38
2023-05-13T05:06:33.602Z,96921.53
2023-05-13T05:09:00.081Z,96933.72
2023-05-13T05:11:26.504Z,96932.31
2023-05-13T05:13:52.939Z,96933.25
2023-05-13T05:16:19.387Z,96941.75
2023-05-13T05:18:45.902Z,96939.16
2023-05-13T05:21:12.419Z,96940.44
2023-05-13T05:23:38.893Z,96942.94
2023-05-13T05:26:11.829Z,96945.47
2023-05-13T05:28:38.707Z,96939.25
2023-05-13T05:31:05.182Z,96947.72
2023-05-13T05:33:31.648Z,96944.59
2023-05-13T05:35:58.085Z,96953.94
2023-05-13T05:38:24.627Z,96946.28
2023-05-13T05:40:51.126Z,96952.84
2023-05-13T05:43:17.629Z,96950.97
2023-05-13T05:45:44.208Z,96956.06
2023-05-13T05:48:10.697Z,96957.25
2023-05-13T05:50:37.234Z,96963.19
2023-05-13T05:53:03.724Z,96967.44
2023-05-13T05:55:30.184Z,96965.25
2023-05-13T05:57:56.642Z,96970.06
2023-05-13T06:00:23.370Z,96971.69
2023-05-13T06:02:50.156Z,96968.13
2023-05-13T06:05:16.767Z,96967.97
2023-05-13T06:07:43.249Z,96966.34
2023-05-13T06:10:09.759Z,96967.97
2023-05-13T06:12:36.318Z,96963.13
2023-05-13T06:15:02.827Z,96966.69
2023-05-13T06:17:29.338Z,96967.03
2023-05-13T06:19:55.899Z,96964.38
2023-05-13T06:22:22.366Z,96964.88
2023-05-13T06:24:48.954Z,96970.06
2023-05-13T06:27:15.506Z,96966.28
2023-05-13T06:29:41.982Z,96967.88
2023-05-13T06:32:08.518Z,96967.34
2023-05-13T06:34:35.018Z,96961.81
2023-05-13T06:37:01.588Z,96967.19
2023-05-13T06:39:28.170Z,96956.50
2023-05-13T06:41:54.683Z,96961.19
2023-05-13T06:44:21.247Z,96966.28
2023-05-13T06:46:47.811Z,96964.91
2023-05-13T06:49:14.402Z,96971.69
2023-05-13T06:51:40.848Z,96981.22
2023-05-13T06:54:07.320Z,96965.84
2023-05-13T06:56:33.909Z,96974.16
2023-05-13T06:59:00.396Z,96974.41
2023-05-13T07:01:27.999Z,96967.28
2023-05-13T07:03:54.695Z,96971.69
2023-05-13T07:06:21.208Z,96965.75
2023-05-13T07:08:50.493Z,96973.13
2023-05-13T07:11:16.964Z,96972.88
2023-05-13T07:13:43.449Z,96972.47
2023-05-13T07:16:09.980Z,96969.75
2023-05-13T07:18:36.649Z,96977.47
2023-05-13T07:21:03.173Z,96975.59
2023-05-13T07:23:29.693Z,96975.50
2023-05-13T07:25:56.147Z,96964.41
2023-05-13T07:28:22.645Z,96969.47
2023-05-13T07:30:49.244Z,96968.88
2023-05-13T07:33:15.766Z,96974.00
2023-05-13T07:35:44.984Z,96973.06
2023-05-13T07:38:11.520Z,96970.16
2023-05-13T07:40:38.401Z,96976.97
2023-05-13T07:43:04.864Z,96968.72
2023-05-13T07:45:31.439Z,96971.75
2023-05-13T07:47:57.892Z,96965.66
2023-05-13T07:50:24.406Z,96972.53
2023-05-13T07:52:50.912Z,96974.41
2023-05-13T07:55:17.347Z,96970.56
2023-05-13T07:57:43.806Z,96972.00
2023-05-13T08:00:10.286Z,96971.38
2023-05-13T08:02:36.785Z,96975.59
2023-05-13T08:05:03.423Z,96977.44
2023-05-13T08:07:30.279Z,96971.84
2023-05-13T08:09:56.758Z,96974.69
2023-05-13T08:12:23.204Z,96975.47
2023-05-13T08:14:49.747Z,96972.53
2023-05-13T08:17:16.281Z,96970.06
2023-05-13T08:19:42.771Z,96967.97
2023-05-13T08:22:09.246Z,96964.75
2023-05-13T08:41:33.884Z,96971.34
2023-05-13T10:40:45.078Z,96913.97
2023-05-13T12:22:41.458Z,96900.50
2023-05-13T12:25:10.830Z,96897.84
2023-05-13T12:27:37.363Z,96894.00
2023-05-13T12:30:03.915Z,96889.22
2023-05-13T12:32:30.398Z,96901.41
2023-05-13T12:34:56.841Z,96899.97
2023-05-13T12:37:23.410Z,96900.56
2023-05-13T12:39:49.906Z,96903.38
2023-05-13T12:42:16.330Z,96902.16
2023-05-13T12:44:42.832Z,96903.66
2023-05-13T12:47:09.586Z,96899.06
2023-05-13T12:49:36.082Z,96907.72
2023-05-13T12:52:02.509Z,96913.69
2023-05-13T12:54:29.002Z,96910.34
2023-05-13T12:56:55.454Z,96911.78
2023-05-13T12:59:21.909Z,96910.59
2023-05-13T13:01:48.396Z,96912.16
2023-05-13T13:04:14.901Z,96900.25
2023-05-13T13:06:41.444Z,96908.69
2023-05-13T13:09:07.968Z,96903.03
2023-05-13T13:11:35.501Z,96908.81
2023-05-13T13:14:01.985Z,96905.75
2023-05-13T13:16:28.559Z,96911.69
2023-05-13T13:18:55.824Z,96909.34
2023-05-13T13:21:22.598Z,96909.88
2023-05-13T13:23:49.182Z,96912.94
2023-05-13T13:26:15.686Z,96906.81
2023-05-13T13:28:42.129Z,96910.53
2023-05-13T13:31:08.666Z,96907.50
2023-05-13T13:33:35.101Z,96904.66
2023-05-13T13:36:01.630Z,96907.50
2023-05-13T13:38:28.155Z,96915.31
2023-05-13T13:40:54.682Z,96915.66
2023-05-13T13:43:21.203Z,96909.88
2023-05-13T13:45:47.770Z,96905.69
2023-05-13T13:48:14.372Z,96898.72
2023-05-13T13:50:40.866Z,96903.53
2023-05-13T13:53:07.353Z,96903.22
2023-05-13T13:55:33.910Z,96897.09
2023-05-13T13:58:00.437Z,96894.19
2023-05-13T14:00:26.873Z,96904.66
2023-05-13T14:02:53.425Z,96904.47
2023-05-13T14:05:20.021Z,96907.59
2023-05-13T14:07:46.496Z,96905.78
2023-05-13T14:10:12.951Z,96906.91
2023-05-13T14:12:39.469Z,96913.03
